Wednesday, November 22, 2017, 8:00 AM EST
Back to Local

KVSF, Hartness State Airport

Location: Perkinsville, VT, United States Lat: 43.35
Local Time: 8:00 AM EST (13:00 GMT) Lon: -72.517
Time Zone: US/Eastern Elev: 577 ft

Show me the last for .
Show Decoded

2017-11-22 06:54 METAR KVSF 221154Z AUTO 00000KT 10SM SCT095 M04/M04 A2994 RMK AO2 SLP147 I6000
                 T10391039 11022 21039 55007 =
2017-11-22 05:54 METAR KVSF 221054Z AUTO 00000KT 10SM CLR M04/M04 A2993 RMK AO2 SLP143 I1000
                 T10391044 =
2017-11-22 04:54 METAR KVSF 220954Z AUTO 00000KT 10SM FEW090 M04/M04 A2996 RMK AO2 SLP153 I1000
                 T10391044 =
2017-11-22 03:54 METAR KVSF 220854Z AUTO 00000KT 10SM CLR M03/M04 A2996 RMK AO2 SLP152 I1000
                 I3000 T10331039 53002 =
2017-11-22 02:54 METAR KVSF 220754Z AUTO 31003KT 10SM CLR M03/M04 A2996 RMK AO2 SLP151 I1000
                 T10331044 =
2017-11-22 01:54 METAR KVSF 220654Z AUTO 00000KT 10SM CLR M03/M04 A2996 RMK AO2 SLP150 I1000
                 T10281039 =
2017-11-22 00:54 METAR KVSF 220554Z AUTO 00000KT 7SM CLR M03/M03 A2996 RMK AO2 SLP150 T10281033
                 10033 21028 58001 =
2017-11-21 23:54 METAR KVSF 220454Z AUTO 00000KT 10SM CLR M02/M03 A2997 RMK AO2 SLP156 T10221033
                 401171044 =
2017-11-21 22:54 METAR KVSF 220354Z AUTO 00000KT 10SM CLR M02/M03 A2997 RMK AO2 SLP155 T10171033
                 =
2017-11-21 21:54 METAR KVSF 220254Z AUTO 27003KT 10SM CLR M01/M03 A2996 RMK AO2 SLP153 T10111028
                 53010 =
2017-11-21 20:54 METAR KVSF 220154Z AUTO 27003KT 10SM CLR M01/M02 A2995 RMK AO2 SLP151 T10061022
                 =
2017-11-21 19:54 METAR KVSF 220054Z AUTO 26005KT 10SM CLR 01/M02 A2994 RMK AO2 SLP147 T00061022 =
2017-11-21 18:54 METAR KVSF 212354Z AUTO 34005KT 10SM CLR 03/M02 A2993 RMK AO2 SLP143 T00281017
                 10117 20022 51016 =
2017-11-21 17:54 METAR KVSF 212254Z AUTO 32003KT 10SM CLR 02/M01 A2992 RMK AO2 SLP139 T00221011 =
2017-11-21 16:54 METAR KVSF 212154Z AUTO 00000KT 10SM CLR 08/M02 A2991 RMK AO2 SLP136 T00781022 =
2017-11-21 15:54 METAR KVSF 212054Z AUTO 16009KT 10SM CLR 11/M03 A2988 RMK AO2 SLP124 T01061028
                 56007 =
2017-11-21 14:54 METAR KVSF 211954Z AUTO 18009G14KT 10SM CLR 12/M03 A2988 RMK AO2 SLP124
                 T01171028 =
2017-11-21 13:54 METAR KVSF 211854Z AUTO 17014G21KT 10SM CLR 12/M03 A2989 RMK AO2 SLP125
                 T01171033 =
2017-11-21 12:54 METAR KVSF 211754Z AUTO 16007KT 10SM CLR 11/M03 A2990 RMK AO2 SLP131 T01061033
                 10106 21044 56037 =
2017-11-21 11:54 METAR KVSF 211654Z AUTO 17007KT 140V200 10SM CLR 08/M03 A2994 RMK AO2 SLP143
                 T00781028 =
2017-11-21 10:54 METAR KVSF 211554Z AUTO 00000KT 10SM CLR 04/M02 A2997 RMK AO2 SLP155 T00441022 =
2017-11-21 09:54 METAR KVSF 211454Z AUTO 16004KT 10SM CLR 01/M03 A3002 RMK AO2 SLP171 T00111028
                 58008 =
2017-11-21 08:54 METAR KVSF 211354Z AUTO 00000KT 10SM CLR M02/M02 A3003 RMK AO2 SLP178 T10171022
                 =

Support USWX by starting your Amazon purchase here.